Terminal Aerodrome Forecast
Issued by NWS

Home | Current Version | Previous Version | Text Only | Print | Product List | Glossary On
Versions: 1 2 3 4 5 6 7 8 9 10 11 12 13 14 15 16 17 18 19 20 21 22 23 24
000
FTUS45 KREV 252300
TAFCXP
TAF
KCXP 252321Z 2600/2624 02014KT P6SM VCSH BKN040
     FM260400 VRB04KT P6SM FEW035
     FM261900 08011KT P6SM SCT030=

USA.gov is the U.S. government's official web portal to all federal, state and local government web resources and services.